Time;durP1;ratioP1;P1;durP2;ratioP2;P2;SDS_P1;SDS_P2;PMS_P1;PMS_P2;Temp;Humidity;BMP_temperature;BMP_pressure;BME280_temperature;BME280_humidity;BME280_pressure;Samples;Min_cycle;Max_cycle;Signal;HPM_P1;HPM_P2
2023/10/12 00:01:26;;;;;;;7.53;2.90;;;21.00;89.80;;;;;;5062349;28;20036;-63
2023/10/12 00:04:04;;;;;;;6.30;2.22;;;20.90;89.40;;;;;;5056537;28;20042;-63
2023/10/12 00:06:36;;;;;;;6.88;2.80;;;20.90;89.80;;;;;;5059165;28;20032;-63
2023/10/12 00:09:16;;;;;;;13.43;2.35;;;20.90;90.10;;;;;;5059121;28;20021;-63
2023/10/12 00:11:54;;;;;;;7.55;2.30;;;20.90;89.70;;;;;;5057544;28;20534;-63
2023/10/12 00:14:22;;;;;;;7.55;2.33;;;20.90;90.20;;;;;;5057402;28;20047;-63
2023/10/12 00:16:50;;;;;;;8.88;2.45;;;20.80;89.60;;;;;;5056507;28;20041;-63
2023/10/12 00:19:16;;;;;;;7.38;2.33;;;20.80;90.20;;;;;;5057599;28;20263;-63
2023/10/12 00:21:43;;;;;;;5.97;2.30;;;20.80;90.50;;;;;;5058790;28;20147;-63
2023/10/12 00:24:13;;;;;;;7.18;2.40;;;20.70;89.60;;;;;;5056056;28;20029;-63
2023/10/12 00:26:42;;;;;;;7.50;2.55;;;20.70;89.80;;;;;;5059268;28;20042;-63
2023/10/12 00:29:08;;;;;;;7.68;2.15;;;20.70;89.10;;;;;;5056713;28;20037;-63
2023/10/12 00:31:38;;;;;;;10.60;3.05;;;20.60;88.80;;;;;;5058951;28;20045;-62
2023/10/12 00:34:04;;;;;;;6.38;2.78;;;20.70;88.50;;;;;;5054628;28;20040;-63
2023/10/12 00:36:30;;;;;;;6.35;2.53;;;20.70;89.20;;;;;;5060993;28;20039;-63
2023/10/12 00:38:56;;;;;;;5.13;2.60;;;20.70;88.90;;;;;;5056189;28;20029;-63
2023/10/12 00:41:25;;;;;;;10.73;2.58;;;20.80;88.60;;;;;;5058017;28;20397;-63
2023/10/12 00:44:06;;;;;;;6.35;2.45;;;20.80;89.00;;;;;;5053943;28;20512;-63
2023/10/12 00:46:40;;;;;;;7.28;2.30;;;20.80;88.90;;;;;;5058672;28;20222;-63
2023/10/12 00:49:22;;;;;;;7.45;2.42;;;20.70;88.80;;;;;;5056550;28;20536;-63
2023/10/12 00:54:58;;;;;;;7.80;2.50;;;20.70;89.10;;;;;;5050278;28;20044;-63
2023/10/12 00:57:24;;;;;;;5.90;2.22;;;20.70;88.80;;;;;;5059562;28;20493;-63
2023/10/12 00:59:53;;;;;;;8.18;2.15;;;20.70;89.30;;;;;;5056856;28;20074;-63
2023/10/12 01:02:23;;;;;;;4.45;2.13;;;20.70;89.40;;;;;;5054472;28;20033;-62
2023/10/12 01:04:52;;;;;;;6.00;2.55;;;20.70;89.40;;;;;;5054978;28;20029;-63
2023/10/12 01:07:19;;;;;;;8.65;2.53;;;20.60;90.30;;;;;;5057592;28;20131;-63
2023/10/12 01:09:48;;;;;;;6.07;2.85;;;20.60;90.10;;;;;;5060158;28;20676;-63
2023/10/12 01:12:14;;;;;;;7.25;2.33;;;20.50;90.70;;;;;;5060413;28;20059;-63
2023/10/12 01:14:47;;;;;;;6.50;1.98;;;20.50;90.50;;;;;;5057401;28;20024;-63
2023/10/12 01:17:18;;;;;;;10.75;2.78;;;20.50;90.50;;;;;;5060587;28;20032;-63
2023/10/12 01:19:46;;;;;;;5.43;2.25;;;20.50;89.30;;;;;;5061085;28;20573;-63
2023/10/12 01:22:13;;;;;;;10.88;2.60;;;20.50;90.30;;;;;;5057605;28;21064;-63
2023/10/12 01:24:45;;;;;;;5.53;2.17;;;20.40;90.30;;;;;;5061706;28;20029;-63
2023/10/12 01:27:14;;;;;;;10.43;3.45;;;20.40;90.40;;;;;;5061406;28;20165;-63
2023/10/12 01:29:41;;;;;;;5.65;2.53;;;20.40;90.40;;;;;;5065529;28;20712;-63
2023/10/12 01:34:43;;;;;;;7.18;2.10;;;20.40;90.90;;;;;;5058549;28;20029;-63
2023/10/12 01:37:22;;;;;;;5.45;2.25;;;20.40;91.10;;;;;;5058835;28;20028;-63
2023/10/12 01:39:59;;;;;;;3.92;2.47;;;20.30;91.20;;;;;;5060825;28;20038;-63
2023/10/12 01:42:35;;;;;;;9.38;2.45;;;20.30;91.50;;;;;;5058918;28;20037;-63
2023/10/12 01:45:03;;;;;;;8.90;2.42;;;20.20;90.80;;;;;;5062175;28;20027;-63
2023/10/12 01:47:29;;;;;;;8.50;2.97;;;20.20;90.90;;;;;;5059601;28;20035;-63
2023/10/12 01:50:00;;;;;;;6.78;2.47;;;20.20;90.90;;;;;;5059156;28;20024;-63
2023/10/12 01:52:26;;;;;;;8.05;2.63;;;20.20;91.20;;;;;;5061750;28;20095;-63
2023/10/12 01:54:52;;;;;;;4.30;2.22;;;20.20;91.20;;;;;;5057863;28;20032;-63
2023/10/12 01:57:30;;;;;;;5.43;2.38;;;20.20;91.40;;;;;;5060506;28;20043;-63
2023/10/12 01:59:58;;;;;;;6.90;2.72;;;20.20;91.60;;;;;;5059792;28;20056;-63
2023/10/12 02:02:24;;;;;;;5.43;2.85;;;20.10;91.70;;;;;;5064026;28;20488;-64
2023/10/12 02:04:52;;;;;;;6.90;2.85;;;20.20;91.50;;;;;;5059510;28;20020;-62
2023/10/12 02:07:18;;;;;;;4.85;2.42;;;20.10;91.40;;;;;;5060412;28;20094;-63
2023/10/12 02:09:44;;;;;;;5.47;2.50;;;20.10;91.30;;;;;;5065096;28;20677;-63
2023/10/12 02:12:13;;;;;;;6.43;2.80;;;20.10;91.50;;;;;;5053978;28;20063;-63
2023/10/12 02:14:40;;;;;;;5.88;2.63;;;20.10;91.50;;;;;;5061055;28;20038;-63
2023/10/12 02:17:08;;;;;;;4.65;2.35;;;20.10;91.60;;;;;;5056495;28;20017;-63
2023/10/12 02:19:41;;;;;;;5.40;2.70;;;20.10;91.90;;;;;;5061871;28;20039;-63
2023/10/12 02:22:25;;;;;;;5.57;2.17;;;20.10;92.10;;;;;;5057946;28;20025;-63
2023/10/12 02:24:57;;;;;;;6.70;2.60;;;20.00;92.30;;;;;;5063356;28;20590;-63
2023/10/12 02:27:24;;;;;;;9.40;2.72;;;19.90;92.40;;;;;;5058550;28;20106;-63
2023/10/12 02:29:55;;;;;;;6.03;2.55;;;19.90;92.10;;;;;;5060980;28;20404;-63
2023/10/12 02:32:23;;;;;;;5.25;2.70;;;19.90;92.30;;;;;;5059516;28;20119;-63
2023/10/12 02:34:57;;;;;;;6.60;2.60;;;19.90;92.60;;;;;;5060843;28;20024;-63
2023/10/12 02:37:24;;;;;;;4.93;2.25;;;19.90;92.60;;;;;;5058006;28;20551;-63
2023/10/12 02:39:53;;;;;;;5.35;2.35;;;19.80;92.80;;;;;;5061235;28;20027;-63
2023/10/12 02:42:28;;;;;;;5.63;2.78;;;19.80;92.70;;;;;;5056466;28;20047;-63
2023/10/12 02:47:29;;;;;;;9.40;2.70;;;19.80;93.00;;;;;;5055108;28;20025;-63
2023/10/12 02:52:35;;;;;;;6.15;2.40;;;19.70;93.20;;;;;;5057399;28;20111;-64
2023/10/12 02:55:49;;;;;;;5.90;2.50;;;19.70;93.90;;;;;;5059318;28;20025;-63
2023/10/12 02:58:06;;;;;;;5.57;2.60;;;19.70;94.20;;;;;;5063956;28;20048;-63
2023/10/12 03:00:44;;;;;;;4.15;3.05;;;19.60;94.40;;;;;;5058106;28;20027;-63
2023/10/12 03:03:23;;;;;;;7.05;2.65;;;19.60;94.80;;;;;;5057041;28;20024;-63
2023/10/12 03:05:51;;;;;;;7.60;2.90;;;19.60;95.50;;;;;;5059577;28;20017;-63
2023/10/12 03:08:22;;;;;;;10.82;2.75;;;19.50;96.10;;;;;;5058483;28;20503;-63
2023/10/12 03:13:35;;;;;;;9.02;3.65;;;19.40;96.70;;;;;;5058242;28;20032;-62
2023/10/12 03:18:46;;;;;;;5.07;2.55;;;19.20;97.80;;;;;;5059991;28;20032;-62
2023/10/12 03:21:12;;;;;;;6.82;2.90;;;19.10;98.60;;;;;;5059100;28;20650;-62
2023/10/12 03:23:46;;;;;;;6.07;3.20;;;19.10;98.80;;;;;;5059448;28;20111;-63
2023/10/12 03:26:24;;;;;;;18.50;4.15;;;18.90;99.00;;;;;;5056032;28;20116;-63
2023/10/12 03:29:07;;;;;;;6.45;3.40;;;18.90;99.20;;;;;;5055270;28;20025;-63
2023/10/12 03:31:53;;;;;;;7.38;3.10;;;18.80;99.10;;;;;;5055423;28;20067;-62
2023/10/12 03:34:53;;;;;;;8.57;3.50;;;18.70;98.90;;;;;;5060984;28;20035;-63
2023/10/12 03:37:30;;;;;;;5.72;3.15;;;18.70;98.80;;;;;;5056077;28;20060;-63
2023/10/12 03:40:23;;;;;;;7.78;3.25;;;18.70;98.90;;;;;;5057524;28;20032;-62
2023/10/12 03:42:52;;;;;;;9.07;3.53;;;18.60;98.90;;;;;;5054786;28;20028;-62
2023/10/12 03:45:24;;;;;;;4.47;2.95;;;18.60;99.20;;;;;;5059889;28;20025;-63
2023/10/12 03:50:58;;;;;;;9.57;3.40;;;18.60;99.80;;;;;;5058056;28;20174;-63
2023/10/12 03:53:26;;;;;;;10.30;4.30;;;18.60;99.90;;;;;;5057410;28;20039;-63
2023/10/12 03:55:58;;;;;;;11.00;4.75;;;18.50;99.90;;;;;;5059399;28;20043;-62
2023/10/12 03:58:24;;;;;;;11.88;4.10;;;18.50;99.90;;;;;;5058842;28;20033;-63
2023/10/12 04:03:40;;;;;;;10.05;4.53;;;18.40;99.90;;;;;;5055554;28;20669;-63
2023/10/12 04:06:15;;;;;;;8.57;4.22;;;18.40;99.90;;;;;;5057685;28;20106;-63
2023/10/12 04:08:49;;;;;;;8.95;4.43;;;18.30;99.90;;;;;;5059733;28;20039;-63
2023/10/12 04:21:23;;;;;;;11.57;4.50;;;18.10;99.90;;;;;;5057267;28;20079;-63
2023/10/12 04:34:10;;;;;;;9.75;4.18;;;17.90;99.90;;;;;;5055413;28;20527;-63
2023/10/12 04:39:24;;;;;;;8.38;4.22;;;17.90;99.90;;;;;;5054832;28;20028;-63
2023/10/12 04:42:04;;;;;;;7.90;3.90;;;17.90;99.90;;;;;;5057964;28;20021;-62
2023/10/12 04:47:05;;;;;;;7.00;4.60;;;17.80;99.90;;;;;;5056682;28;20039;-63
2023/10/12 04:57:32;;;;;;;9.85;4.32;;;17.70;99.90;;;;;;5059368;28;20032;-63
2023/10/12 05:03:23;;;;;;;10.00;4.30;;;17.70;99.90;;;;;;5058921;28;20753;-63
2023/10/12 05:05:55;;;;;;;8.77;5.10;;;17.70;99.90;;;;;;5054597;28;20123;-63
2023/10/12 05:08:20;;;;;;;7.57;4.20;;;17.60;99.90;;;;;;5054632;28;20068;-63
2023/10/12 05:10:46;;;;;;;13.10;5.07;;;17.60;99.90;;;;;;5060437;28;20161;-63
2023/10/12 05:13:22;;;;;;;11.95;4.53;;;17.60;99.90;;;;;;5054053;28;20032;-63
2023/10/12 05:15:54;;;;;;;;;;;17.60;99.90;;;;;;5061045;28;20480;-63
2023/10/12 05:18:25;;;;;;;7.05;4.20;;;17.60;99.90;;;;;;5054729;28;20097;-63
2023/10/12 05:20:52;;;;;;;10.13;5.22;;;17.60;99.90;;;;;;5059998;28;20047;-63
2023/10/12 05:23:18;;;;;;;12.70;4.68;;;17.60;99.90;;;;;;5053947;28;20098;-63
2023/10/12 05:26:07;;;;;;;9.15;4.40;;;17.60;99.90;;;;;;5060731;28;20174;-63
2023/10/12 05:28:36;;;;;;;13.35;5.55;;;17.50;99.90;;;;;;5055353;28;20028;-63
2023/10/12 05:36:08;;;;;;;19.27;6.20;;;17.50;99.90;;;;;;5056420;28;20472;-63
2023/10/12 05:38:48;;;;;;;14.20;6.10;;;17.50;99.90;;;;;;5054878;28;20608;-63
2023/10/12 05:41:34;;;;;;;16.85;6.15;;;17.50;99.90;;;;;;5057762;28;20029;-62
2023/10/12 05:44:08;;;;;;;13.17;5.67;;;17.50;99.90;;;;;;5059647;28;20119;-63
2023/10/12 05:46:38;;;;;;;12.68;5.75;;;17.50;99.90;;;;;;5055994;28;20284;-63
2023/10/12 05:49:14;;;;;;;13.32;6.43;;;17.50;99.90;;;;;;5052738;28;20449;-63
2023/10/12 05:51:44;;;;;;;17.70;6.57;;;17.40;99.90;;;;;;5056633;28;20036;-63
2023/10/12 05:54:15;;;;;;;11.80;6.18;;;17.40;99.90;;;;;;5053273;28;20091;-63
2023/10/12 05:56:41;;;;;;;15.82;6.22;;;17.30;99.90;;;;;;5060428;28;20045;-63
2023/10/12 05:59:12;;;;;;;13.40;6.28;;;17.20;99.90;;;;;;5052738;28;20150;-63
2023/10/12 06:01:38;;;;;;;10.93;5.95;;;17.30;99.90;;;;;;5073330;28;20029;-63
2023/10/12 06:04:08;;;;;;;17.83;7.00;;;17.20;99.90;;;;;;5059784;28;20578;-63
2023/10/12 06:06:35;;;;;;;14.70;6.40;;;17.30;99.90;;;;;;5060873;28;20043;-63
2023/10/12 06:09:17;;;;;;;11.57;6.40;;;17.20;99.90;;;;;;5061012;28;20047;-62
2023/10/12 06:11:44;;;;;;;15.02;7.68;;;17.30;99.90;;;;;;5060643;28;20408;-62
2023/10/12 06:14:14;;;;;;;13.20;6.38;;;17.20;99.90;;;;;;5057216;28;20033;-63
2023/10/12 06:16:45;;;;;;;14.35;7.20;;;17.20;99.90;;;;;;5064240;28;20040;-63
2023/10/12 06:19:28;;;;;;;15.10;6.97;;;17.10;99.90;;;;;;5055728;28;20025;-63
2023/10/12 06:21:58;;;;;;;15.07;6.65;;;17.10;99.90;;;;;;5063553;28;20042;-63
2023/10/12 06:24:33;;;;;;;11.50;6.88;;;17.10;99.90;;;;;;5058530;28;20628;-63
2023/10/12 06:29:45;;;;;;;16.35;6.60;;;17.10;99.90;;;;;;5056479;28;20443;-63
2023/10/12 06:32:17;;;;;;;12.38;6.75;;;17.10;99.90;;;;;;5061337;28;20021;-63
2023/10/12 06:34:43;;;;;;;16.77;6.43;;;17.10;99.90;;;;;;5059375;28;20724;-63
2023/10/12 06:42:38;;;;;;;13.70;5.45;;;17.00;99.90;;;;;;5058560;28;20037;-63
2023/10/12 06:45:08;;;;;;;10.82;5.60;;;17.00;99.90;;;;;;5059244;28;20105;-63
2023/10/12 06:47:44;;;;;;;12.55;6.30;;;17.00;99.90;;;;;;5062667;28;20621;-63
2023/10/12 06:50:17;;;;;;;15.63;5.13;;;17.00;99.90;;;;;;5058950;28;20083;-63
2023/10/12 06:52:43;;;;;;;14.02;6.75;;;17.00;99.90;;;;;;5062549;28;20038;-63
2023/10/12 06:55:21;;;;;;;12.98;5.50;;;17.10;99.90;;;;;;5058701;28;20119;-63
2023/10/12 06:57:52;;;;;;;12.60;5.93;;;17.10;99.90;;;;;;5062153;28;20044;-63
2023/10/12 07:00:33;;;;;;;9.45;5.22;;;17.10;99.90;;;;;;5059374;28;20066;-63
2023/10/12 07:03:00;;;;;;;9.32;4.68;;;17.10;99.90;;;;;;5059098;28;20128;-63
2023/10/12 07:05:33;;;;;;;12.93;5.47;;;17.10;99.90;;;;;;5063030;28;20464;-63
2023/10/12 07:07:58;;;;;;;11.30;5.15;;;17.10;99.90;;;;;;5060861;28;20127;-63
2023/10/12 07:10:28;;;;;;;10.43;4.90;;;17.20;99.90;;;;;;5063680;28;20147;-63
2023/10/12 07:12:59;;;;;;;12.45;5.95;;;17.20;99.90;;;;;;5061172;28;20036;-63
2023/10/12 07:15:31;;;;;;;12.68;5.20;;;17.20;99.90;;;;;;5057224;28;20580;-63
2023/10/12 07:17:57;;;;;;;13.40;4.97;;;17.20;99.90;;;;;;5058604;28;20055;-63
2023/10/12 07:20:46;;;;;;;10.95;5.55;;;17.20;99.90;;;;;;5056850;28;20063;-63
2023/10/12 07:25:48;;;;;;;9.80;5.70;;;17.30;99.90;;;;;;5058270;28;20032;-64
2023/10/12 07:28:19;;;;;;;14.18;5.65;;;17.30;99.90;;;;;;5059035;28;20035;-64
2023/10/12 07:33:32;;;;;;;11.93;5.50;;;17.30;99.90;;;;;;5058133;28;20040;-63
2023/10/12 07:36:17;;;;;;;11.50;5.38;;;17.40;99.90;;;;;;5056596;28;20052;-63
2023/10/12 07:39:13;;;;;;;9.35;4.70;;;17.40;99.90;;;;;;5057872;28;20115;-63
2023/10/12 07:41:41;;;;;;;13.00;4.60;;;17.30;99.90;;;;;;5058536;28;20119;-63
2023/10/12 07:44:07;;;;;;;12.90;4.40;;;17.30;99.90;;;;;;5058691;28;20025;-63
2023/10/12 07:46:35;;;;;;;10.52;4.75;;;17.30;99.90;;;;;;5059362;28;20028;-63
2023/10/12 07:52:01;;;;;;;;;;;17.30;99.90;;;;;;5057178;28;20028;-63
2023/10/12 07:57:11;;;;;;;10.23;5.00;;;17.40;99.90;;;;;;5058827;28;20032;-62
2023/10/12 07:59:38;;;;;;;6.55;3.75;;;17.40;99.90;;;;;;5058366;28;20039;-62
2023/10/12 08:02:15;;;;;;;8.38;4.03;;;17.40;99.90;;;;;;5057724;28;20031;-62
2023/10/12 08:04:57;;;;;;;7.93;4.53;;;17.50;99.90;;;;;;5058305;28;20055;-62
2023/10/12 08:07:26;;;;;;;11.18;4.80;;;17.50;99.90;;;;;;5059788;28;20033;-63
2023/10/12 08:10:08;;;;;;;12.10;4.35;;;17.50;99.90;;;;;;5058217;28;20039;-62
2023/10/12 08:12:36;;;;;;;5.63;2.88;;;17.50;99.90;;;;;;5060652;28;20787;-65
2023/10/12 08:15:10;;;;;;;2.47;1.58;;;17.50;99.90;;;;;;5054986;28;20032;-63
2023/10/12 08:17:39;;;;;;;2.28;1.25;;;17.40;99.90;;;;;;5057488;28;20519;-63
2023/10/12 08:22:57;;;;;;;1.58;0.90;;;17.10;99.90;;;;;;5061720;28;20028;-62
2023/10/12 08:25:27;;;;;;;1.40;0.55;;;16.90;99.90;;;;;;5054582;28;20035;-62
2023/10/12 08:27:54;;;;;;;3.65;0.52;;;16.80;99.90;;;;;;5061757;28;20036;-62
2023/10/12 08:30:23;;;;;;;2.83;0.70;;;16.80;99.90;;;;;;5054337;28;20497;-63
2023/10/12 08:32:58;;;;;;;2.17;0.70;;;16.60;99.90;;;;;;5060351;28;20036;-63
2023/10/12 08:35:37;;;;;;;3.70;0.50;;;16.60;99.90;;;;;;5055180;28;20596;-63
2023/10/12 08:38:12;;;;;;;3.80;0.90;;;16.50;99.90;;;;;;5054494;28;20040;-63
2023/10/12 08:40:54;;;;;;;4.50;1.88;;;16.50;99.90;;;;;;5055300;28;20050;-63
2023/10/12 08:43:34;;;;;;;3.88;0.90;;;16.40;99.90;;;;;;5059130;28;20029;-63
2023/10/12 08:46:01;;;;;;;4.78;0.80;;;16.30;99.90;;;;;;5055475;28;20116;-63
2023/10/12 08:48:27;;;;;;;3.10;0.80;;;16.20;99.90;;;;;;5060521;28;20037;-63
2023/10/12 08:51:08;;;;;;;3.30;1.20;;;16.10;99.90;;;;;;5054905;28;20036;-63
2023/10/12 08:53:34;;;;;;;3.63;1.00;;;16.00;99.90;;;;;;5060206;28;20097;-63
2023/10/12 08:56:06;;;;;;;9.85;1.20;;;16.00;99.90;;;;;;5055046;28;20376;-64
2023/10/12 08:58:50;;;;;;;7.95;0.82;;;15.90;99.90;;;;;;5061377;28;20060;-67
2023/10/12 09:01:31;;;;;;;3.20;1.13;;;15.80;99.90;;;;;;5053651;28;20037;-66
2023/10/12 09:04:12;;;;;;;6.25;1.10;;;15.80;99.90;;;;;;5061590;28;20466;-62
2023/10/12 09:09:09;;;;;;;4.05;1.20;;;15.80;99.90;;;;;;5060641;28;20157;-63
2023/10/12 09:11:35;;;;;;;5.28;0.65;;;15.80;99.90;;;;;;5055824;28;20526;-64
2023/10/12 09:14:16;;;;;;;4.60;0.75;;;15.80;99.90;;;;;;5059392;28;20060;-64
2023/10/12 09:16:43;;;;;;;5.72;0.85;;;15.80;99.90;;;;;;5056936;28;20028;-63
2023/10/12 09:19:23;;;;;;;4.60;0.70;;;15.80;99.90;;;;;;5058446;28;20033;-63
2023/10/12 09:21:57;;;;;;;8.75;1.35;;;15.80;99.90;;;;;;5057517;28;20509;-63
2023/10/12 09:24:29;;;;;;;5.30;1.23;;;15.90;99.90;;;;;;5058311;28;20041;-63
2023/10/12 09:26:59;;;;;;;3.17;0.90;;;15.90;99.90;;;;;;5056856;28;20029;-63
2023/10/12 09:29:28;;;;;;;3.28;0.70;;;15.90;99.90;;;;;;5056809;28;20148;-64
2023/10/12 09:35:02;;;;;;;;;;;15.90;99.90;;;;;;5055267;28;20036;-63
2023/10/12 09:37:28;;;;;;;3.53;0.75;;;15.90;99.90;;;;;;5059498;28;19923;-63
2023/10/12 09:39:54;;;;;;;8.18;1.23;;;15.90;99.90;;;;;;5063378;28;20459;-63
2023/10/12 09:42:32;;;;;;;5.53;0.93;;;15.90;99.90;;;;;;5060369;28;20020;-63
2023/10/12 09:45:01;;;;;;;9.30;1.10;;;16.00;99.90;;;;;;5058645;28;20424;-63
2023/10/12 09:47:43;;;;;;;3.10;0.88;;;16.10;99.90;;;;;;5061009;28;20038;-63
2023/10/12 09:50:13;;;;;;;4.63;0.80;;;16.10;99.90;;;;;;5059873;28;20490;-63
2023/10/12 09:52:57;;;;;;;3.53;0.75;;;16.10;99.90;;;;;;5061511;28;20066;-62
2023/10/12 09:55:32;;;;;;;8.95;1.80;;;16.10;99.90;;;;;;5059403;28;20037;-63
2023/10/12 09:58:22;;;;;;;10.15;1.23;;;16.30;99.90;;;;;;5063097;28;20036;-62
2023/10/12 10:01:15;;;;;;;5.03;0.85;;;16.30;99.90;;;;;;5055328;28;20091;-63
2023/10/12 10:03:52;;;;;;;8.65;1.30;;;16.30;99.90;;;;;;5061179;28;20035;-63
2023/10/12 10:06:37;;;;;;;4.32;1.00;;;16.40;99.90;;;;;;5057749;28;20035;-63
2023/10/12 10:09:49;;;;;;;5.00;1.45;;;16.40;99.90;;;;;;5059399;28;20036;-63
2023/10/12 10:12:00;;;;;;;3.72;1.10;;;16.40;99.90;;;;;;5043546;28;20056;-63
2023/10/12 10:14:34;;;;;;;;;;;16.40;99.90;;;;;;5061319;28;20086;-63
2023/10/12 10:17:01;;;;;;;8.55;1.50;;;16.40;99.90;;;;;;5056610;28;20384;-63
2023/10/12 10:19:30;;;;;;;4.95;1.15;;;16.40;99.90;;;;;;5062068;28;20110;-67
2023/10/12 10:22:11;;;;;;;3.70;0.82;;;16.50;99.90;;;;;;5057247;28;20103;-67
2023/10/12 10:24:54;;;;;;;8.63;1.08;;;16.50;99.90;;;;;;5061646;28;20050;-67
2023/10/12 10:27:35;;;;;;;4.82;1.38;;;16.40;99.90;;;;;;5064069;28;20613;-67
2023/10/12 10:30:26;;;;;;;4.18;1.65;;;16.40;99.90;;;;;;5058667;28;20032;-67
2023/10/12 10:33:15;;;;;;;4.75;1.00;;;16.40;99.90;;;;;;5059150;28;20017;-67
2023/10/12 10:35:57;;;;;;;3.80;1.00;;;16.50;99.90;;;;;;5065225;28;20123;-67
2023/10/12 10:38:34;;;;;;;4.70;1.15;;;16.50;99.90;;;;;;5063404;28;20036;-67
2023/10/12 10:41:08;;;;;;;2.25;0.95;;;16.50;99.90;;;;;;5061283;28;20103;-67
2023/10/12 10:43:37;;;;;;;6.20;1.63;;;16.50;99.90;;;;;;5061250;28;20036;-67
2023/10/12 10:46:13;;;;;;;12.13;1.98;;;16.60;99.90;;;;;;5065494;28;20033;-68
2023/10/12 10:48:49;;;;;;;9.05;2.20;;;16.60;99.90;;;;;;5058927;28;20044;-67
2023/10/12 10:51:19;;;;;;;;;;;16.60;99.90;;;;;;5056942;28;20041;-67
2023/10/12 10:53:54;;;;;;;12.02;2.13;;;16.70;99.90;;;;;;5060361;28;19933;-65
2023/10/12 10:56:38;;;;;;;12.13;2.20;;;16.70;99.90;;;;;;5065800;28;20044;-66
2023/10/12 10:59:12;;;;;;;14.55;2.92;;;16.70;99.90;;;;;;5064159;28;20093;-67
2023/10/12 11:01:46;;;;;;;11.15;2.67;;;16.80;99.90;;;;;;5061142;28;20522;-67
2023/10/12 11:04:36;;;;;;;12.13;2.33;;;16.80;99.90;;;;;;5061882;28;20480;-67
2023/10/12 11:07:03;;;;;;;5.18;1.85;;;16.90;99.90;;;;;;5060419;28;20032;-68
2023/10/12 11:09:31;;;;;;;10.27;1.40;;;16.90;99.90;;;;;;5064611;28;20040;-66
2023/10/12 11:12:00;;;;;;;5.25;1.42;;;17.00;99.90;;;;;;5062799;28;20041;-67
2023/10/12 11:14:32;;;;;;;8.88;1.38;;;17.10;99.90;;;;;;5060629;28;20033;-68
2023/10/12 11:17:04;;;;;;;5.07;1.65;;;17.20;99.90;;;;;;5059622;28;20032;-68
2023/10/12 11:19:33;;;;;;;8.88;1.48;;;17.20;99.90;;;;;;5063970;28;20039;-67
2023/10/12 11:21:58;;;;;;;8.88;1.70;;;17.30;99.90;;;;;;5063826;28;20602;-67
2023/10/12 11:24:25;;;;;;;4.65;1.70;;;17.30;99.90;;;;;;5063226;28;20111;-68
2023/10/12 11:26:57;;;;;;;11.52;2.33;;;17.40;99.90;;;;;;5060839;28;20035;-68
2023/10/12 11:29:26;;;;;;;5.90;1.48;;;17.40;99.90;;;;;;5061729;28;20025;-66
2023/10/12 11:32:09;;;;;;;10.98;2.00;;;17.50;99.90;;;;;;5064118;28;20035;-66
2023/10/12 11:34:41;;;;;;;8.32;2.53;;;17.50;99.90;;;;;;5062933;28;20040;-67
2023/10/12 11:37:07;;;;;;;8.63;1.55;;;17.60;99.90;;;;;;5061081;28;20039;-67
2023/10/12 11:39:50;;;;;;;8.60;1.83;;;17.60;99.90;;;;;;5060210;28;20032;-66
2023/10/12 11:42:17;;;;;;;7.85;1.35;;;17.50;99.90;;;;;;5064266;28;20052;-67
2023/10/12 11:44:46;;;;;;;6.72;1.17;;;17.50;99.90;;;;;;5058384;28;20064;-67
2023/10/12 11:47:23;;;;;;;5.28;1.40;;;17.40;99.90;;;;;;5064431;28;20028;-67
2023/10/12 11:49:55;;;;;;;5.10;1.27;;;17.40;99.90;;;;;;5059368;28;20040;-66
2023/10/12 11:52:34;;;;;;;8.80;1.65;;;17.40;99.90;;;;;;5060456;28;20048;-67
2023/10/12 11:55:07;;;;;;;5.88;1.48;;;17.40;99.90;;;;;;5062930;28;20025;-67
2023/10/12 11:57:40;;;;;;;7.22;1.77;;;17.30;99.90;;;;;;5058344;28;20035;-67
2023/10/12 12:00:20;;;;;;;4.93;1.40;;;17.40;99.90;;;;;;5063101;28;20021;-68
2023/10/12 12:02:57;;;;;;;5.15;1.63;;;17.40;99.90;;;;;;5059863;28;20020;-68
2023/10/12 12:05:29;;;;;;;6.30;1.75;;;17.40;99.90;;;;;;5061309;28;20116;-68
2023/10/12 12:07:58;;;;;;;5.25;1.15;;;17.50;99.90;;;;;;5061000;28;20779;-68
2023/10/12 12:10:38;;;;;;;8.63;2.13;;;17.50;99.90;;;;;;5063431;28;20036;-68
2023/10/12 12:13:12;;;;;;;11.05;2.17;;;17.60;99.90;;;;;;5058177;28;20036;-67
2023/10/12 12:15:45;;;;;;;9.57;1.98;;;17.60;99.90;;;;;;5057330;28;20120;-68
2023/10/12 12:18:19;;;;;;;6.47;1.60;;;17.60;99.90;;;;;;5063372;28;20551;-66
2023/10/12 12:21:04;;;;;;;6.47;1.60;;;17.60;99.90;;;;;;5057566;28;20044;-62
2023/10/12 12:23:34;;;;;;;11.60;2.20;;;17.70;99.90;;;;;;5055660;28;20039;-62
2023/10/12 12:26:07;;;;;;;9.95;1.75;;;17.70;99.90;;;;;;5059609;28;20032;-62
2023/10/12 12:28:43;;;;;;;4.75;1.20;;;17.70;99.90;;;;;;5055698;28;20032;-62
2023/10/12 12:31:15;;;;;;;7.40;1.40;;;17.70;99.90;;;;;;5056442;28;20041;-63
2023/10/12 12:33:45;;;;;;;6.95;1.25;;;17.70;99.90;;;;;;5055745;28;20437;-63
2023/10/12 12:36:21;;;;;;;19.25;7.07;;;17.70;99.90;;;;;;5057568;28;20040;-63
2023/10/12 12:38:57;;;;;;;10.48;2.40;;;17.70;99.90;;;;;;5053148;28;20035;-64
2023/10/12 12:41:24;;;;;;;5.53;1.42;;;17.80;99.90;;;;;;5054349;28;20814;-64
2023/10/12 12:43:51;;;;;;;7.75;2.03;;;17.70;99.90;;;;;;5057499;28;20032;-63
2023/10/12 12:46:19;;;;;;;19.60;12.52;;;17.70;99.90;;;;;;5059979;28;20086;-63
2023/10/12 12:48:48;;;;;;;10.18;5.22;;;17.70;99.90;;;;;;5058181;28;20036;-63
2023/10/12 12:51:19;;;;;;;9.30;4.50;;;17.70;99.90;;;;;;5056552;28;20060;-64
2023/10/12 12:53:49;;;;;;;8.63;4.70;;;17.60;99.90;;;;;;5054676;28;20052;-64
2023/10/12 12:56:16;;;;;;;15.13;6.72;;;17.60;99.90;;;;;;5056915;28;20037;-63
2023/10/12 12:58:46;;;;;;;10.95;6.40;;;17.60;99.90;;;;;;5059533;28;20519;-63
2023/10/12 13:01:17;;;;;;;13.13;7.05;;;17.60;99.90;;;;;;5056447;28;20036;-64
2023/10/12 13:03:43;;;;;;;13.45;5.60;;;17.50;99.90;;;;;;5057705;28;20029;-64
2023/10/12 13:06:09;;;;;;;11.18;5.70;;;17.60;99.90;;;;;;5060343;28;20046;-64
2023/10/12 13:08:36;;;;;;;6.90;2.65;;;17.50;99.90;;;;;;5056877;28;20028;-64
2023/10/12 13:11:06;;;;;;;4.38;1.83;;;17.50;99.90;;;;;;5058416;28;20067;-64
2023/10/12 13:13:39;;;;;;;6.05;2.53;;;17.60;99.90;;;;;;5055915;28;20032;-64
2023/10/12 13:16:11;;;;;;;8.25;3.05;;;17.60;99.90;;;;;;5058645;28;20067;-64
2023/10/12 13:18:38;;;;;;;10.07;2.28;;;17.60;99.90;;;;;;5064888;28;20028;-63
2023/10/12 13:21:06;;;;;;;7.10;2.63;;;17.70;99.90;;;;;;5061496;28;20738;-64
2023/10/12 13:23:35;;;;;;;4.30;1.50;;;17.60;99.90;;;;;;5060193;28;20029;-62
2023/10/12 13:26:12;;;;;;;7.30;2.42;;;17.50;99.90;;;;;;5058006;28;20025;-63
2023/10/12 13:28:41;;;;;;;5.47;1.88;;;17.50;99.90;;;;;;5063465;28;20691;-63
2023/10/12 13:31:10;;;;;;;7.07;1.30;;;17.40;99.90;;;;;;5061928;28;20078;-64
2023/10/12 13:33:37;;;;;;;2.88;1.50;;;17.40;99.90;;;;;;5061026;28;20065;-63
2023/10/12 13:36:04;;;;;;;7.68;3.20;;;17.40;99.90;;;;;;5061696;28;20665;-63
2023/10/12 13:38:34;;;;;;;10.82;2.80;;;17.40;99.90;;;;;;5060434;28;20116;-63
2023/10/12 13:41:01;;;;;;;5.45;1.67;;;17.40;99.90;;;;;;5063179;28;20044;-64
2023/10/12 13:43:30;;;;;;;7.22;2.25;;;17.50;99.90;;;;;;5059727;28;20704;-63
2023/10/12 13:45:56;;;;;;;6.60;1.92;;;17.50;99.90;;;;;;5062721;28;20032;-63
2023/10/12 13:48:27;;;;;;;4.47;1.35;;;17.60;99.90;;;;;;5054432;28;20472;-63
2023/10/12 13:51:01;;;;;;;6.00;1.33;;;17.60;99.90;;;;;;5059504;28;20029;-64
2023/10/12 13:53:28;;;;;;;3.75;1.30;;;17.60;99.90;;;;;;5057460;28;20036;-63
2023/10/12 13:55:56;;;;;;;8.00;1.60;;;17.60;99.90;;;;;;5060845;28;20036;-63
2023/10/12 13:58:25;;;;;;;5.20;1.98;;;17.60;99.90;;;;;;5057921;28;20040;-64
2023/10/12 14:00:54;;;;;;;5.50;1.48;;;17.60;99.90;;;;;;5062276;28;20097;-64
2023/10/12 14:03:29;;;;;;;5.45;1.90;;;17.60;99.90;;;;;;5061256;28;20108;-64
2023/10/12 14:05:59;;;;;;;7.45;2.40;;;17.60;99.90;;;;;;5056616;28;20037;-63
2023/10/12 14:08:25;;;;;;;10.68;3.70;;;17.60;99.90;;;;;;5055348;28;20036;-64
2023/10/12 14:10:51;;;;;;;5.78;2.10;;;17.60;99.90;;;;;;5059324;28;20025;-64
2023/10/12 14:13:18;;;;;;;23.00;8.23;;;17.60;99.90;;;;;;5061125;28;20044;-64
2023/10/12 14:15:43;;;;;;;8.25;4.78;;;17.60;99.90;;;;;;5061883;28;20090;-67
2023/10/12 14:18:11;;;;;;;7.47;2.85;;;17.60;99.90;;;;;;5054572;28;20032;-63
2023/10/12 14:20:42;;;;;;;4.70;1.42;;;17.60;99.90;;;;;;5061778;28;20028;-64
2023/10/12 14:23:08;;;;;;;5.22;1.42;;;17.60;99.90;;;;;;5059374;28;20025;-63
2023/10/12 14:25:38;;;;;;;8.43;1.42;;;17.60;99.90;;;;;;5057062;28;20058;-64
2023/10/12 14:28:05;;;;;;;5.70;1.63;;;17.50;99.90;;;;;;5057303;28;20027;-64
2023/10/12 14:30:32;;;;;;;10.07;1.60;;;17.50;99.90;;;;;;5060023;28;20047;-63
2023/10/12 14:33:02;;;;;;;7.10;2.10;;;17.50;99.90;;;;;;5060755;28;20043;-63
2023/10/12 14:35:37;;;;;;;6.90;1.25;;;17.50;99.90;;;;;;5058894;28;20043;-63
2023/10/12 14:38:08;;;;;;;6.38;1.67;;;17.50;99.90;;;;;;5055225;28;20737;-64
2023/10/12 14:40:37;;;;;;;15.30;2.03;;;17.50;99.90;;;;;;5056795;28;20112;-64
2023/10/12 14:43:06;;;;;;;7.65;1.73;;;17.50;99.90;;;;;;5057883;28;20031;-64